Hauptseite
METAR-TAF:

METAR-TAF

Flughäfen :

Flughafen Bremen

Bremen, Deutschland

Breite: 53-03N, Länge: 008-48E, Höhe: 3 m

Beobachtung

Neuester Wetterbericht von vor 14 Minuten, um 09:20 UTC
Wind 7 kt aus Ost/Nordost, variierte zwischen Nord/Nordost und Ost
Temperatur 26°C
Luftfeuchtigkeit 42%
Luftdruck 1024 hPa
Sichtweite 10 km oder mehr
keine Wolken unter 1500 m und keine Kumulonimbus oder Gewitterwolken

METAR: EDDW 110920Z AUTO 06007KT 030V100 CAVOK 26/12 Q1024 NOSIG

Zeit: 11:34 (09:34 UTC)

Prognose

Neuester Wetterbericht von vor 4 Stunden und 34 Minuten, um 05:00 UTC
Gültige Prognose vom 11 um 06 UTC bis 12 um 06 UTC
Wind 6 kt aus Ost/Nordost
Sichtweite 10 km oder mehr
keine Wolken unter 1500 m und keine Kumulonimbus oder Gewitterwolken
Zeitweise
vom 11 um 22 UTC bis 12 um 05 UTC
Wind 3 kt aus unterschiedlichen Richtungen

TAF: EDDW 110500Z 1106/1206 06006KT CAVOK TEMPO 1122/1205 VRB03KT

Wetterbeobachtungen und Prognosen von mehr als 4000 Flughäfen (METAR und TAF Bericht).

Die verfügbaren Stationen werden durch gelbe und rote Markierungen auf der Karte dargestellt.

Führen Sie die Maus auf sie, um den Namen der Station zu sehen.

Darauf klicken, um die Beobachtung von Wetterbeobachtungen und Prognosen zu sehen.

Um die Karte zu ändern : klicken Sie auf den grünen Tasten mit einem schwarzen Kreuz Zum Vergrößern, auf den grünen Button mit einem Gedankenstrich zu verkleinern, oder auf die grünen Pfeile für benachbarte Karten.


METAR-TAF: